Time;durP1;ratioP1;P1;durP2;ratioP2;P2;SDS_P1;SDS_P2;PMS_P1;PMS_P2;Temp;Humidity;BMP_temperature;BMP_pressure;BME280_temperature;BME280_humidity;BME280_pressure;Samples;Min_cycle;Max_cycle;Signal;HPM_P1;HPM_P2
2022/03/25 00:00:33;;;;;;;0.80;0.80;;;3.30;99.90;;;;;;5053972;28;20687;-75
2022/03/25 00:02:59;;;;;;;0.70;0.70;;;3.40;99.90;;;;;;5054442;28;20999;-72
2022/03/25 00:05:25;;;;;;;0.80;0.80;;;3.50;99.90;;;;;;5054024;28;20191;-75
2022/03/25 00:07:50;;;;;;;0.67;0.67;;;3.50;99.90;;;;;;5054313;28;20816;-72
2022/03/25 00:10:16;;;;;;;0.80;0.80;;;3.50;96.50;;;;;;5053896;28;20195;-73
2022/03/25 00:12:41;;;;;;;0.83;0.83;;;3.30;74.40;;;;;;5054285;28;20178;-72
2022/03/25 00:15:07;;;;;;;0.80;0.80;;;3.30;71.40;;;;;;5054579;28;20182;-72
2022/03/25 00:17:33;;;;;;;0.80;0.80;;;3.20;99.90;;;;;;5053890;28;20183;-72
2022/03/25 00:19:59;;;;;;;0.80;0.80;;;3.20;99.90;;;;;;5053230;28;20252;-72
2022/03/25 00:22:25;;;;;;;0.90;0.90;;;3.20;99.90;;;;;;5053705;28;20261;-71
2022/03/25 00:24:50;;;;;;;0.80;0.80;;;3.30;99.90;;;;;;5054201;28;20667;-71
2022/03/25 00:27:17;;;;;;;0.80;0.80;;;3.30;99.90;;;;;;5054216;28;20198;-72
2022/03/25 00:29:43;;;;;;;0.80;0.80;;;3.30;99.90;;;;;;5053543;28;20195;-71
2022/03/25 00:32:09;;;;;;;0.80;0.80;;;3.40;1.00;;;;;;5053814;28;20240;-72
2022/03/25 00:34:34;;;;;;;0.87;0.87;;;3.30;1.00;;;;;;5053606;28;20175;-71
2022/03/25 00:37:00;;;;;;;0.87;0.87;;;3.20;1.00;;;;;;5055449;28;20926;-72
2022/03/25 00:39:26;;;;;;;0.80;0.80;;;3.30;1.00;;;;;;5058666;28;20175;-73
2022/03/25 00:41:51;;;;;;;0.83;0.83;;;3.40;29.00;;;;;;5061911;28;20233;-72
2022/03/25 00:44:18;;;;;;;0.90;0.90;;;3.50;1.00;;;;;;5055439;28;20215;-73
2022/03/25 00:46:44;;;;;;;0.90;0.90;;;3.40;1.00;;;;;;5053411;28;20263;-72
2022/03/25 00:49:10;;;;;;;0.80;0.80;;;3.20;1.00;;;;;;5052804;28;20560;-72
2022/03/25 00:51:36;;;;;;;0.80;0.80;;;3.10;1.00;;;;;;5053044;28;20731;-72
2022/03/25 00:54:03;;;;;;;0.80;0.80;;;3.10;1.00;;;;;;5053251;28;20209;-72
2022/03/25 00:56:29;;;;;;;0.80;0.80;;;3.20;1.00;;;;;;5053163;28;20175;-72
2022/03/25 00:58:54;;;;;;;0.90;0.90;;;3.30;24.90;;;;;;5052458;28;20297;-72
2022/03/25 01:01:20;;;;;;;0.80;0.80;;;3.10;1.00;;;;;;5052389;28;20768;-72
2022/03/25 01:03:45;;;;;;;0.83;0.83;;;3.00;99.90;;;;;;5052551;28;20203;-73
2022/03/25 01:06:11;;;;;;;0.80;0.80;;;2.80;1.00;;;;;;5052736;28;20179;-72
2022/03/25 01:08:36;;;;;;;0.80;0.80;;;2.60;1.00;;;;;;5052977;28;20178;-72
2022/03/25 01:11:04;;;;;;;0.90;0.90;;;2.40;1.00;;;;;;5052266;28;20191;-73
2022/03/25 01:13:33;;;;;;;0.80;0.80;;;2.00;1.00;;;;;;5052793;28;20187;-73
2022/03/25 01:16:00;;;;;;;0.80;0.80;;;2.00;1.00;;;;;;5052591;28;20179;-72
2022/03/25 01:18:26;;;;;;;0.80;0.80;;;2.00;1.00;;;;;;5052664;28;20493;-72
2022/03/25 01:20:52;;;;;;;0.80;0.80;;;1.90;1.00;;;;;;5052087;28;20205;-72
2022/03/25 01:23:17;;;;;;;0.80;0.80;;;2.10;99.90;;;;;;5052671;28;20215;-72
2022/03/25 01:25:43;;;;;;;0.80;0.80;;;2.20;99.90;;;;;;5052580;28;20175;-73
2022/03/25 01:28:09;;;;;;;0.80;0.80;;;2.20;90.80;;;;;;5052480;28;20366;-72
2022/03/25 01:30:35;;;;;;;0.80;0.80;;;2.30;99.90;;;;;;5052065;28;20201;-72
2022/03/25 01:33:00;;;;;;;0.70;0.70;;;2.20;1.00;;;;;;5052248;28;20623;-72
2022/03/25 01:35:26;;;;;;;0.80;0.80;;;2.20;1.00;;;;;;5052473;28;20253;-72
2022/03/25 01:37:52;;;;;;;0.80;0.80;;;2.10;1.00;;;;;;5052242;28;20214;-73
2022/03/25 01:40:17;;;;;;;0.80;0.80;;;2.20;1.00;;;;;;5052092;28;20251;-72
2022/03/25 01:42:43;;;;;;;0.70;0.70;;;2.20;1.00;;;;;;5052327;28;20210;-73
2022/03/25 01:45:11;;;;;;;0.70;0.70;;;2.30;99.90;;;;;;5052271;28;20214;-73
2022/03/25 01:47:37;;;;;;;0.80;0.80;;;2.30;99.90;;;;;;5051940;28;20652;-72
2022/03/25 01:50:03;;;;;;;0.90;0.90;;;2.20;1.00;;;;;;5051934;28;20213;-74
2022/03/25 01:52:29;;;;;;;0.70;0.70;;;2.20;99.90;;;;;;5051652;28;20262;-74
2022/03/25 01:55:12;;;;;;;0.83;0.83;;;2.10;1.00;;;;;;5051971;28;20171;-74
2022/03/25 01:57:38;;;;;;;0.80;0.80;;;2.20;99.90;;;;;;5051869;28;20241;-73
2022/03/25 02:00:04;;;;;;;0.77;0.77;;;2.00;1.00;;;;;;5051287;28;20190;-73
2022/03/25 02:02:30;;;;;;;0.83;0.83;;;2.00;99.90;;;;;;5052014;28;20175;-73
2022/03/25 02:04:55;;;;;;;0.70;0.70;;;2.00;1.00;;;;;;5052033;28;20261;-73
2022/03/25 02:07:21;;;;;;;0.90;0.90;;;2.10;99.90;;;;;;5051989;28;20620;-74
2022/03/25 02:09:46;;;;;;;0.90;0.90;;;1.90;1.00;;;;;;5050946;28;20195;-73
2022/03/25 02:12:13;;;;;;;0.87;0.87;;;1.70;1.00;;;;;;5051939;28;20840;-74
2022/03/25 02:14:39;;;;;;;0.80;0.80;;;1.80;1.00;;;;;;5051826;28;20179;-73
2022/03/25 02:17:04;;;;;;;0.90;0.90;;;1.80;1.00;;;;;;5051984;28;20640;-72
2022/03/25 02:19:30;;;;;;;0.90;0.90;;;1.80;9.10;;;;;;5051021;28;20171;-73
2022/03/25 02:21:55;;;;;;;0.80;0.80;;;1.90;99.90;;;;;;5052080;28;20175;-73
2022/03/25 02:24:21;;;;;;;0.83;0.83;;;1.80;1.00;;;;;;5051585;28;20219;-73
2022/03/25 02:26:47;;;;;;;0.73;0.73;;;1.80;30.50;;;;;;5051631;28;20171;-72
2022/03/25 02:29:16;;;;;;;0.90;0.90;;;1.80;1.00;;;;;;5051004;28;20175;-72
2022/03/25 02:31:41;;;;;;;0.80;0.80;;;1.60;99.90;;;;;;5051675;28;20191;-72
2022/03/25 02:34:08;;;;;;;0.80;0.80;;;1.50;1.00;;;;;;5051791;28;20262;-75
2022/03/25 02:36:41;;;;;;;0.73;0.73;;;1.40;10.70;;;;;;5051525;28;20164;-74
2022/03/25 02:39:09;;;;;;;0.77;0.77;;;1.40;1.00;;;;;;5051069;28;20179;-76
2022/03/25 02:41:35;;;;;;;0.83;0.83;;;1.60;1.00;;;;;;5051306;28;20542;-74
2022/03/25 02:44:02;;;;;;;0.80;0.80;;;1.60;1.00;;;;;;5051206;28;20206;-74
2022/03/25 02:46:28;;;;;;;0.80;0.80;;;1.60;99.90;;;;;;5051616;28;20179;-74
2022/03/25 02:48:53;;;;;;;0.90;0.90;;;1.60;1.00;;;;;;5051079;28;20270;-78
2022/03/25 02:51:19;;;;;;;0.80;0.80;;;1.40;99.90;;;;;;5051435;28;20203;-73
2022/03/25 02:53:45;;;;;;;0.80;0.80;;;1.40;1.00;;;;;;5051563;28;20186;-74
2022/03/25 02:56:10;;;;;;;0.80;0.80;;;1.40;99.90;;;;;;5051328;28;20176;-74
2022/03/25 02:58:36;;;;;;;0.90;0.90;;;1.40;99.90;;;;;;5051168;28;20655;-74
2022/03/25 03:01:02;;;;;;;0.80;0.80;;;1.40;99.90;;;;;;5050923;28;20694;-74
2022/03/25 03:03:27;;;;;;;0.70;0.70;;;1.40;99.90;;;;;;5051499;28;20328;-75
2022/03/25 03:05:53;;;;;;;0.80;0.80;;;1.20;22.90;;;;;;5051034;28;20538;-74
2022/03/25 03:08:18;;;;;;;0.70;0.70;;;0.80;1.00;;;;;;5050837;28;20195;-74
2022/03/25 03:10:44;;;;;;;0.80;0.80;;;0.60;1.00;;;;;;5050686;28;20278;-74
2022/03/25 03:13:10;;;;;;;0.80;0.80;;;0.90;99.90;;;;;;5051158;28;20705;-76
2022/03/25 03:15:36;;;;;;;0.80;0.80;;;0.80;1.00;;;;;;5051231;28;20734;-74
2022/03/25 03:18:02;;;;;;;0.80;0.80;;;0.90;99.90;;;;;;5051331;28;20208;-74
2022/03/25 03:20:27;;;;;;;0.80;0.80;;;1.00;99.90;;;;;;5052410;28;20656;-75
2022/03/25 03:22:55;;;;;;;0.80;0.80;;;1.10;1.00;;;;;;5055211;28;20207;-75
2022/03/25 03:25:20;;;;;;;0.77;0.77;;;1.00;99.90;;;;;;5054842;28;20166;-74
2022/03/25 03:27:46;;;;;;;0.90;0.90;;;1.00;99.90;;;;;;5054983;28;20662;-74
2022/03/25 03:30:12;;;;;;;0.80;0.80;;;1.00;99.90;;;;;;5054494;28;20198;-74
2022/03/25 03:32:38;;;;;;;0.80;0.80;;;0.80;1.00;;;;;;5054866;28;20175;-76
2022/03/25 03:35:04;;;;;;;0.80;0.80;;;1.00;1.00;;;;;;5054667;28;20171;-75
2022/03/25 03:37:30;;;;;;;0.70;0.70;;;0.90;1.00;;;;;;5054695;28;20177;-75
2022/03/25 03:39:56;;;;;;;0.80;0.80;;;0.70;1.00;;;;;;5054789;28;20191;-74
2022/03/25 03:42:22;;;;;;;0.80;0.80;;;0.60;99.90;;;;;;5054666;28;20226;-75
2022/03/25 03:44:47;;;;;;;0.83;0.83;;;0.70;1.00;;;;;;5054702;28;20703;-74
2022/03/25 03:47:14;;;;;;;0.90;0.90;;;0.70;99.90;;;;;;5054676;28;20175;-75
2022/03/25 03:49:40;;;;;;;0.90;0.90;;;0.80;1.00;;;;;;5054173;28;20285;-74
2022/03/25 03:52:08;;;;;;;0.90;0.90;;;0.90;99.90;;;;;;5054494;28;20174;-74
2022/03/25 03:54:36;;;;;;;0.90;0.90;;;0.90;1.00;;;;;;5054459;28;20249;-74
2022/03/25 03:57:01;;;;;;;0.80;0.80;;;1.00;1.00;;;;;;5054382;28;20194;-74
2022/03/25 03:59:27;;;;;;;0.90;0.90;;;0.80;99.90;;;;;;5053867;28;20187;-74
2022/03/25 04:01:52;;;;;;;0.90;0.90;;;0.80;1.00;;;;;;5054436;28;20262;-74
2022/03/25 04:04:18;;;;;;;0.80;0.80;;;0.70;99.90;;;;;;5053708;28;20267;-75
2022/03/25 04:06:44;;;;;;;0.80;0.80;;;0.60;1.00;;;;;;5054294;28;20172;-74
2022/03/25 04:09:10;;;;;;;0.80;0.80;;;0.70;1.00;;;;;;5053650;28;20179;-74
2022/03/25 04:11:36;;;;;;;0.80;0.80;;;0.80;1.00;;;;;;5052689;28;20195;-74
2022/03/25 04:14:01;;;;;;;0.70;0.70;;;0.60;1.00;;;;;;5054482;28;20171;-75
2022/03/25 04:16:29;;;;;;;0.80;0.80;;;0.40;1.00;;;;;;5054146;28;20266;-73
2022/03/25 04:18:55;;;;;;;0.90;0.90;;;0.40;1.00;;;;;;5053387;28;20595;-75
2022/03/25 04:21:21;;;;;;;0.80;0.80;;;0.50;99.90;;;;;;5053820;28;20207;-74
2022/03/25 04:23:47;;;;;;;0.80;0.80;;;0.40;1.00;;;;;;5053723;28;20221;-74
2022/03/25 04:26:12;;;;;;;0.90;0.90;;;0.50;1.00;;;;;;5053962;28;20175;-74
2022/03/25 04:28:38;;;;;;;0.90;0.90;;;0.50;99.90;;;;;;5053976;28;20715;-74
2022/03/25 04:31:04;;;;;;;0.90;0.90;;;0.50;99.90;;;;;;5052699;28;20705;-74
2022/03/25 04:33:31;;;;;;;0.87;0.87;;;0.50;37.80;;;;;;5052861;28;20552;-74
2022/03/25 04:35:57;;;;;;;0.80;0.80;;;0.40;1.00;;;;;;5053639;28;20201;-75
2022/03/25 04:38:22;;;;;;;0.90;0.90;;;0.30;1.00;;;;;;5053587;28;20179;-74
2022/03/25 04:40:48;;;;;;;0.80;0.80;;;0.50;1.00;;;;;;5053142;28;20195;-74
2022/03/25 04:43:14;;;;;;;0.87;0.87;;;0.50;1.00;;;;;;5053068;28;20276;-76
2022/03/25 04:45:39;;;;;;;0.80;0.80;;;0.50;1.00;;;;;;5053402;28;20179;-74
2022/03/25 04:48:05;;;;;;;0.80;0.80;;;0.40;1.00;;;;;;5053279;28;20214;-75
2022/03/25 04:50:31;;;;;;;0.90;0.90;;;0.40;1.00;;;;;;5052835;28;20198;-75
2022/03/25 04:52:57;;;;;;;0.90;0.90;;;0.40;1.00;;;;;;5053101;28;20178;-75
2022/03/25 04:55:22;;;;;;;0.80;0.80;;;0.40;99.90;;;;;;5053497;28;20201;-76
2022/03/25 04:57:48;;;;;;;0.80;0.80;;;0.30;1.00;;;;;;5052966;28;20190;-74
2022/03/25 05:00:15;;;;;;;0.80;0.80;;;0.40;99.90;;;;;;5053061;28;20202;-74
2022/03/25 05:02:41;;;;;;;0.80;0.80;;;0.30;1.00;;;;;;5053313;28;20182;-75
2022/03/25 05:05:07;;;;;;;0.70;0.70;;;0.30;1.00;;;;;;5052474;28;20415;-74
2022/03/25 05:07:34;;;;;;;0.80;0.80;;;0.30;99.90;;;;;;5053651;28;20167;-73
2022/03/25 05:10:01;;;;;;;0.80;0.80;;;0.50;1.00;;;;;;5054418;28;20199;-73
2022/03/25 05:12:27;;;;;;;0.80;0.80;;;0.40;99.90;;;;;;5055142;28;20202;-75
2022/03/25 05:14:53;;;;;;;0.70;0.70;;;0.50;1.00;;;;;;5055177;28;20175;-73
2022/03/25 05:17:20;;;;;;;0.80;0.80;;;0.40;99.90;;;;;;5055806;28;20213;-73
2022/03/25 05:19:45;;;;;;;0.80;0.80;;;0.40;1.00;;;;;;5053862;28;20198;-74
2022/03/25 05:22:11;;;;;;;0.80;0.80;;;0.40;9.10;;;;;;5052496;28;20190;-75
2022/03/25 05:24:36;;;;;;;0.80;0.80;;;0.30;1.00;;;;;;5051865;28;20264;-73
2022/03/25 05:27:02;;;;;;;1.00;1.00;;;0.30;99.90;;;;;;5051525;28;20167;-73
2022/03/25 05:29:28;;;;;;;0.70;0.70;;;0.30;1.00;;;;;;5051083;28;20289;-73
2022/03/25 05:31:54;;;;;;;0.90;0.90;;;0.20;1.00;;;;;;5051509;28;20258;-74
2022/03/25 05:34:20;;;;;;;0.80;0.80;;;0.30;99.90;;;;;;5051726;28;20266;-74
2022/03/25 05:36:45;;;;;;;0.80;0.80;;;0.30;99.90;;;;;;5051518;28;20179;-72
2022/03/25 05:39:11;;;;;;;0.90;0.90;;;0.40;1.00;;;;;;5052339;28;20171;-73
2022/03/25 05:41:38;;;;;;;0.80;0.80;;;0.30;99.90;;;;;;5052581;28;20194;-72
2022/03/25 05:44:04;;;;;;;0.90;0.90;;;0.30;99.90;;;;;;5051254;28;20260;-72
2022/03/25 05:46:30;;;;;;;0.90;0.90;;;0.50;1.00;;;;;;5051433;28;20179;-72
2022/03/25 05:48:55;;;;;;;0.90;0.90;;;0.60;1.00;;;;;;5051452;28;20175;-72
2022/03/25 05:51:22;;;;;;;0.80;0.80;;;0.70;99.90;;;;;;5051883;28;20241;-73
2022/03/25 05:53:47;;;;;;;0.90;0.90;;;0.80;1.00;;;;;;5052281;28;20190;-71
2022/03/25 05:56:13;;;;;;;0.90;0.90;;;0.90;99.90;;;;;;5052421;28;20644;-73
2022/03/25 05:58:39;;;;;;;0.90;0.90;;;0.90;1.00;;;;;;5052469;28;20260;-72
2022/03/25 06:01:07;;;;;;;0.80;0.80;;;1.10;99.90;;;;;;5051758;28;20654;-72
2022/03/25 06:03:33;;;;;;;0.80;0.80;;;1.40;93.70;;;;;;5051677;28;20216;-71
2022/03/25 06:06:04;;;;;;;0.80;0.80;;;1.60;1.00;;;;;;5052113;28;20186;-72
2022/03/25 06:08:30;;;;;;;0.80;0.80;;;1.70;99.90;;;;;;5052614;28;20187;-72
2022/03/25 06:10:56;;;;;;;0.80;0.80;;;2.30;99.90;;;;;;5051868;28;20560;-74
2022/03/25 06:13:23;;;;;;;0.77;0.77;;;2.20;1.00;;;;;;5051926;28;20599;-72
2022/03/25 06:15:49;;;;;;;0.80;0.80;;;2.10;99.90;;;;;;5052121;28;20183;-72
2022/03/25 06:18:16;;;;;;;0.87;0.87;;;1.80;1.00;;;;;;5051897;28;20270;-72
2022/03/25 06:20:41;;;;;;;0.80;0.80;;;1.90;1.00;;;;;;5051675;28;20203;-72
2022/03/25 06:23:07;;;;;;;0.80;0.80;;;2.10;99.90;;;;;;5052325;28;20571;-77
2022/03/25 06:25:32;;;;;;;0.60;0.60;;;2.50;1.00;;;;;;5051490;28;20764;-72
2022/03/25 06:28:00;;;;;;;0.80;0.80;;;2.80;99.90;;;;;;5052221;28;20179;-72
2022/03/25 06:30:34;;;;;;;0.80;0.80;;;3.00;1.00;;;;;;5052562;28;20257;-72
2022/03/25 06:33:01;;;;;;;0.80;0.80;;;3.10;1.00;;;;;;5053612;28;20603;-71
2022/03/25 06:35:27;;;;;;;0.80;0.80;;;3.20;1.00;;;;;;5058227;28;20179;-71
2022/03/25 06:37:53;;;;;;;0.80;0.80;;;3.40;1.00;;;;;;5057312;28;20730;-72
2022/03/25 06:40:19;;;;;;;0.80;0.80;;;3.40;1.00;;;;;;5054990;28;20222;-73
2022/03/25 06:42:45;;;;;;;0.80;0.80;;;3.90;1.00;;;;;;5051657;28;20182;-72
2022/03/25 06:45:14;;;;;;;0.80;0.80;;;4.20;99.90;;;;;;5051672;28;20194;-72
2022/03/25 06:47:40;;;;;;;0.80;0.80;;;4.50;59.70;;;;;;5051690;28;20694;-72
2022/03/25 06:50:08;;;;;;;0.83;0.83;;;4.40;28.30;;;;;;5051002;28;20199;-73
2022/03/25 06:52:34;;;;;;;0.83;0.83;;;4.80;1.00;;;;;;5051223;28;20218;-73
2022/03/25 06:54:59;;;;;;;0.60;0.60;;;5.00;1.00;;;;;;5051668;28;20207;-73
2022/03/25 06:57:25;;;;;;;0.80;0.80;;;4.80;1.00;;;;;;5051351;28;20195;-75
2022/03/25 06:59:51;;;;;;;0.73;0.73;;;5.10;99.90;;;;;;5050964;28;20195;-72
2022/03/25 07:02:17;;;;;;;0.70;0.70;;;5.00;1.00;;;;;;5051623;28;20179;-74
2022/03/25 07:04:43;;;;;;;0.77;0.77;;;5.40;99.90;;;;;;5051367;28;20210;-73
2022/03/25 07:07:09;;;;;;;0.70;0.70;;;6.40;1.00;;;;;;5050939;28;20429;-73
2022/03/25 07:09:35;;;;;;;0.70;0.70;;;7.00;1.00;;;;;;5050392;28;20167;-73
2022/03/25 07:12:02;;;;;;;0.80;0.80;;;6.80;1.00;;;;;;5051449;28;20662;-73
2022/03/25 07:14:28;;;;;;;0.63;0.63;;;6.90;1.00;;;;;;5051258;28;20179;-72
2022/03/25 07:16:53;;;;;;;0.60;0.60;;;7.00;1.00;;;;;;5051239;28;20168;-72
2022/03/25 07:19:19;;;;;;;0.60;0.60;;;7.80;1.00;;;;;;5050617;28;20213;-74
2022/03/25 07:21:45;;;;;;;0.50;0.50;;;7.30;1.00;;;;;;5050153;28;20453;-75
2022/03/25 07:24:13;;;;;;;0.50;0.50;;;7.10;1.00;;;;;;5051253;28;20219;-73
2022/03/25 07:26:39;;;;;;;0.50;0.50;;;8.80;1.00;;;;;;5051145;28;20167;-72
2022/03/25 07:29:04;;;;;;;0.50;0.50;;;9.60;1.00;;;;;;5050782;28;20301;-72
2022/03/25 07:31:32;;;;;;;0.40;0.40;;;10.10;1.00;;;;;;5054759;28;20641;-73
2022/03/25 07:34:01;;;;;;;0.40;0.40;;;10.70;1.00;;;;;;5051490;28;20180;-74
2022/03/25 07:36:27;;;;;;;0.30;0.30;;;10.90;1.00;;;;;;5051407;28;20179;-75
2022/03/25 07:38:52;;;;;;;0.33;0.33;;;11.30;1.00;;;;;;5050551;28;20182;-75
2022/03/25 07:41:19;;;;;;;0.30;0.30;;;11.50;1.00;;;;;;5051597;28;20191;-75
2022/03/25 07:43:45;;;;;;;0.30;0.30;;;11.50;1.00;;;;;;5050857;28;20230;-73
2022/03/25 07:46:11;;;;;;;0.30;0.30;;;12.00;1.00;;;;;;5051499;28;20215;-73
2022/03/25 07:48:37;;;;;;;0.30;0.30;;;12.50;1.00;;;;;;5051168;28;20260;-73
2022/03/25 07:51:03;;;;;;;0.50;0.50;;;11.80;1.00;;;;;;5049869;28;20195;-73
2022/03/25 07:53:28;;;;;;;0.33;0.33;;;11.60;1.00;;;;;;5050140;28;20187;-73
2022/03/25 07:55:54;;;;;;;0.40;0.40;;;12.50;1.00;;;;;;5049068;28;20184;-73
2022/03/25 07:58:21;;;;;;;0.40;0.40;;;12.10;1.00;;;;;;5049877;28;20309;-73
2022/03/25 08:00:51;;;;;;;0.30;0.30;;;12.90;1.00;;;;;;5050781;28;20210;-74
2022/03/25 08:03:18;;;;;;;0.30;0.30;;;13.40;1.00;;;;;;5050672;28;20199;-73
2022/03/25 08:05:44;;;;;;;0.40;0.40;;;13.50;1.00;;;;;;5050899;28;20216;-74
2022/03/25 08:08:09;;;;;;;0.30;0.30;;;14.00;1.00;;;;;;5053581;28;20178;-73
2022/03/25 08:10:39;;;;;;;0.40;0.40;;;13.80;1.00;;;;;;5053647;28;20222;-73
2022/03/25 08:13:05;;;;;;;0.40;0.40;;;13.80;1.00;;;;;;5054409;28;20167;-74
2022/03/25 08:15:32;;;;;;;0.40;0.40;;;13.00;1.00;;;;;;5054326;28;20209;-73
2022/03/25 08:18:00;;;;;;;0.30;0.30;;;12.90;1.00;;;;;;5053951;28;20717;-74
2022/03/25 08:20:30;;;;;;;0.30;0.30;;;13.50;1.00;;;;;;5053672;28;20278;-73
2022/03/25 08:22:58;;;;;;;0.40;0.40;;;13.90;1.00;;;;;;5054129;28;20594;-74
2022/03/25 08:28:08;;;;;;;0.30;0.30;;;14.10;1.00;;;;;;5054358;28;20609;-72
2022/03/25 08:30:34;;;;;;;0.40;0.40;;;14.90;1.00;;;;;;5053518;28;20199;-74
2022/03/25 08:33:02;;;;;;;0.30;0.30;;;14.80;1.00;;;;;;5055246;28;20245;-73
2022/03/25 08:35:28;;;;;;;0.30;0.30;;;15.00;1.00;;;;;;5055124;28;20249;-73
2022/03/25 08:37:55;;;;;;;0.33;0.33;;;14.00;1.00;;;;;;5053988;28;20249;-73
2022/03/25 08:40:21;;;;;;;0.30;0.30;;;14.40;1.00;;;;;;5053332;28;20207;-73
2022/03/25 08:42:47;;;;;;;0.40;0.40;;;14.20;1.00;;;;;;5054105;28;20187;-73
2022/03/25 08:45:15;;;;;;;0.40;0.40;;;15.10;1.00;;;;;;5053955;28;20205;-72
2022/03/25 08:47:44;;;;;;;0.30;0.30;;;15.20;1.00;;;;;;5054096;28;20203;-72
2022/03/25 08:50:12;;;;;;;0.40;0.40;;;15.60;1.00;;;;;;5053395;28;20195;-73
2022/03/25 08:52:41;;;;;;;0.30;0.30;;;16.00;1.00;;;;;;5053631;28;20175;-73
2022/03/25 08:55:09;;;;;;;0.30;0.30;;;16.30;1.00;;;;;;5053915;28;20183;-73
2022/03/25 08:57:34;;;;;;;0.30;0.30;;;16.40;1.00;;;;;;5053791;28;20327;-73
2022/03/25 09:00:00;;;;;;;0.30;0.30;;;16.40;1.00;;;;;;5053230;28;20265;-73
2022/03/25 09:02:26;;;;;;;0.37;0.37;;;15.50;1.00;;;;;;5053709;28;20186;-73
2022/03/25 09:04:51;;;;;;;0.37;0.37;;;15.20;1.00;;;;;;5053621;28;20585;-74
2022/03/25 09:07:17;;;;;;;0.30;0.30;;;15.70;1.00;;;;;;5053620;28;20258;-74
2022/03/25 09:09:42;;;;;;;0.27;0.27;;;16.30;1.00;;;;;;5052781;28;20566;-74
2022/03/25 09:12:08;;;;;;;0.40;0.40;;;16.90;1.00;;;;;;5053603;28;20201;-73
2022/03/25 09:14:35;;;;;;;0.30;0.30;;;16.90;1.00;;;;;;5053516;28;20283;-73
2022/03/25 09:17:00;;;;;;;0.30;0.30;;;16.90;1.00;;;;;;5053270;28;20270;-73
2022/03/25 09:19:26;;;;;;;0.30;0.30;;;16.50;1.00;;;;;;5052477;28;20330;-73
2022/03/25 09:21:51;;;;;;;0.40;0.40;;;16.70;1.00;;;;;;5053009;28;20186;-73
2022/03/25 09:24:17;;;;;;;0.30;0.30;;;16.80;1.00;;;;;;5053210;28;20211;-73
2022/03/25 09:26:43;;;;;;;0.23;0.23;;;17.50;1.00;;;;;;5053074;28;20175;-73
2022/03/25 09:29:08;;;;;;;0.47;0.47;;;18.20;1.00;;;;;;5052427;28;20167;-73
2022/03/25 09:31:34;;;;;;;0.30;0.30;;;18.00;1.00;;;;;;5052883;28;20192;-74
2022/03/25 09:35:08;;;;;;;0.40;0.40;;;18.20;1.00;;;;;;5052796;28;20183;-73
2022/03/25 09:36:45;;;;;;;0.40;0.40;;;18.00;1.00;;;;;;5052506;28;20175;-74
2022/03/25 09:39:10;;;;;;;0.40;0.40;;;18.00;1.00;;;;;;5052186;28;20213;-74
2022/03/25 09:41:37;;;;;;;0.27;0.27;;;18.40;1.00;;;;;;5052628;28;20195;-74
2022/03/25 09:44:03;;;;;;;0.30;0.30;;;18.80;1.00;;;;;;5052349;28;20657;-74
2022/03/25 09:46:29;;;;;;;0.30;0.30;;;18.60;1.00;;;;;;5052561;28;20175;-74
2022/03/25 09:48:55;;;;;;;0.20;0.20;;;18.50;1.00;;;;;;5052066;28;20181;-73
2022/03/25 09:51:20;;;;;;;0.40;0.40;;;18.90;1.00;;;;;;5052585;28;20191;-74
2022/03/25 09:53:47;;;;;;;0.40;0.40;;;19.00;1.00;;;;;;5052454;28;20658;-73
2022/03/25 09:56:15;;;;;;;0.40;0.40;;;18.20;1.00;;;;;;5052335;28;20725;-74
2022/03/25 09:58:41;;;;;;;0.30;0.30;;;18.00;1.00;;;;;;5052204;28;20667;-73
2022/03/25 10:01:06;;;;;;;0.30;0.30;;;18.60;1.00;;;;;;5051795;28;20206;-73
2022/03/25 10:03:36;;;;;;;0.27;0.27;;;18.30;1.00;;;;;;5052083;28;20211;-73
2022/03/25 10:06:07;;;;;;;0.20;0.20;;;18.20;1.00;;;;;;5052399;28;20175;-74
2022/03/25 10:08:33;;;;;;;0.20;0.20;;;18.70;1.00;;;;;;5052298;28;20175;-73
2022/03/25 10:11:18;;;;;;;0.20;0.20;;;19.40;1.00;;;;;;5051692;28;20270;-74
2022/03/25 10:13:44;;;;;;;0.30;0.30;;;19.10;1.00;;;;;;5052067;28;20175;-73
2022/03/25 10:16:29;;;;;;;0.30;0.30;;;19.00;1.00;;;;;;5052002;28;20175;-73
2022/03/25 10:18:56;;;;;;;0.30;0.30;;;18.70;1.00;;;;;;5051556;28;20175;-73
2022/03/25 10:21:23;;;;;;;0.27;0.27;;;19.90;1.00;;;;;;5051959;28;20745;-74
2022/03/25 10:23:49;;;;;;;0.30;0.30;;;19.20;1.00;;;;;;5052081;28;20257;-73
2022/03/25 10:26:14;;;;;;;0.30;0.30;;;19.50;1.00;;;;;;5051963;28;20168;-74
2022/03/25 10:28:41;;;;;;;0.40;0.40;;;20.40;1.00;;;;;;5051853;28;20227;-74
2022/03/25 10:31:14;;;;;;;0.20;0.20;;;19.80;1.00;;;;;;5050881;28;20195;-75
2022/03/25 10:33:47;;;;;;;0.27;0.27;;;20.70;1.00;;;;;;5051792;28;20255;-74
2022/03/25 10:36:15;;;;;;;0.30;0.30;;;21.10;1.00;;;;;;5051959;28;20202;-74
2022/03/25 10:38:45;;;;;;;0.20;0.20;;;21.60;1.00;;;;;;5051526;28;20205;-74
2022/03/25 10:41:12;;;;;;;0.20;0.20;;;21.30;1.00;;;;;;5051093;28;20743;-74
2022/03/25 10:43:59;;;;;;;0.40;0.40;;;20.60;1.00;;;;;;5051713;28;20218;-74
2022/03/25 10:46:45;;;;;;;0.20;0.20;;;21.00;1.00;;;;;;5051762;28;20194;-74
2022/03/25 10:49:13;;;;;;;0.43;0.43;;;21.50;1.00;;;;;;5051083;28;20643;-74
2022/03/25 10:51:41;;;;;;;0.30;0.30;;;21.10;1.00;;;;;;5051361;28;20221;-74
2022/03/25 10:54:09;;;;;;;0.40;0.40;;;21.80;1.00;;;;;;5051382;28;20628;-74
2022/03/25 10:56:50;;;;;;;0.50;0.50;;;22.50;1.00;;;;;;5051613;28;20176;-74
2022/03/25 10:59:27;;;;;;;0.50;0.50;;;22.30;1.00;;;;;;5051446;28;20187;-74
2022/03/25 11:01:57;;;;;;;0.37;0.37;;;22.60;1.00;;;;;;5051384;28;20193;-74
2022/03/25 11:04:24;;;;;;;0.40;0.40;;;22.60;1.00;;;;;;5051477;28;20249;-74
2022/03/25 11:06:50;;;;;;;0.50;0.50;;;23.00;1.00;;;;;;5051541;28;20186;-74
2022/03/25 11:09:17;;;;;;;0.30;0.30;;;22.60;1.00;;;;;;5050999;28;20187;-74
2022/03/25 11:11:44;;;;;;;0.30;0.30;;;23.30;1.00;;;;;;5051609;28;20203;-73
2022/03/25 11:14:10;;;;;;;0.40;0.40;;;22.20;1.00;;;;;;5051460;28;20266;-74
2022/03/25 11:16:42;;;;;;;0.40;0.40;;;22.10;1.00;;;;;;5051238;28;20214;-74
2022/03/25 11:19:11;;;;;;;0.40;0.40;;;23.10;1.00;;;;;;5051032;28;20296;-74
2022/03/25 11:21:40;;;;;;;0.38;0.38;;;22.90;1.00;;;;;;5051702;28;20203;-73
2022/03/25 11:24:11;;;;;;;0.40;0.40;;;23.30;1.00;;;;;;5051125;28;20206;-74
2022/03/25 11:26:39;;;;;;;0.40;0.40;;;23.30;1.00;;;;;;5051187;28;20640;-74
2022/03/25 11:29:08;;;;;;;0.53;0.53;;;23.60;1.00;;;;;;5050617;28;20182;-73
2022/03/25 11:32:11;;;;;;;0.50;0.50;;;23.70;1.00;;;;;;5051695;28;20306;-74
2022/03/25 11:34:54;;;;;;;0.40;0.40;;;23.60;1.00;;;;;;5051628;28;20228;-74
2022/03/25 11:37:24;;;;;;;0.50;0.50;;;23.90;1.00;;;;;;5051247;28;20218;-73
2022/03/25 11:40:14;;;;;;;0.30;0.30;;;23.80;1.00;;;;;;5050879;28;20200;-74
2022/03/25 11:42:44;;;;;;;0.40;0.40;;;24.40;1.00;;;;;;5053888;28;20237;-76
2022/03/25 11:45:42;;;;;;;0.40;0.40;;;24.60;1.00;;;;;;5057161;28;20238;-75
2022/03/25 11:48:08;;;;;;;0.40;0.40;;;24.10;1.00;;;;;;5055172;28;20282;-75
2022/03/25 11:50:42;;;;;;;0.33;0.33;;;23.50;1.00;;;;;;5054561;28;20199;-74
2022/03/25 11:53:11;;;;;;;0.43;0.43;;;23.40;1.00;;;;;;5055160;28;20193;-75
2022/03/25 11:56:09;;;;;;;0.40;0.40;;;23.80;1.00;;;;;;5055862;28;20180;-74
2022/03/25 11:58:38;;;;;;;0.30;0.30;;;23.90;1.00;;;;;;5055387;28;20217;-74
2022/03/25 12:01:18;;;;;;;0.33;0.33;;;23.90;1.00;;;;;;5054786;28;20187;-73
2022/03/25 12:03:53;;;;;;;0.30;0.30;;;24.60;1.00;;;;;;5055486;28;20218;-75
2022/03/25 12:06:23;;;;;;;0.40;0.40;;;24.50;1.00;;;;;;5054811;28;20402;-75
2022/03/25 12:09:08;;;;;;;0.40;0.40;;;24.50;1.00;;;;;;5054238;28;20262;-74
2022/03/25 12:11:58;;;;;;;0.50;0.50;;;23.40;1.00;;;;;;5054608;28;20229;-75
2022/03/25 12:14:32;;;;;;;0.40;0.40;;;22.80;1.00;;;;;;5055466;28;20195;-75
2022/03/25 12:17:09;;;;;;;0.30;0.30;;;23.20;1.00;;;;;;5057024;28;20171;-75
2022/03/25 12:19:41;;;;;;;0.40;0.40;;;23.90;1.00;;;;;;5054846;28;20163;-74
2022/03/25 12:22:26;;;;;;;0.20;0.20;;;24.30;1.00;;;;;;5057539;28;20171;-75
2022/03/25 12:24:53;;;;;;;0.37;0.37;;;24.10;1.00;;;;;;5051637;28;20207;-76
2022/03/25 12:27:20;;;;;;;0.30;0.30;;;23.90;1.00;;;;;;5056874;28;20179;-76
2022/03/25 12:29:51;;;;;;;0.40;0.40;;;23.90;1.00;;;;;;5057318;28;20199;-75
2022/03/25 12:32:19;;;;;;;0.30;0.30;;;24.40;1.00;;;;;;5054647;28;20552;-74
2022/03/25 12:34:58;;;;;;;0.40;0.40;;;25.00;1.00;;;;;;5055113;28;20205;-74
2022/03/25 12:37:34;;;;;;;0.20;0.20;;;25.40;1.00;;;;;;5057832;28;20201;-75
2022/03/25 12:40:20;;;;;;;0.40;0.40;;;24.80;1.00;;;;;;5054154;28;20201;-75
2022/03/25 12:42:50;;;;;;;0.40;0.40;;;23.90;1.00;;;;;;5054707;28;20244;-75
2022/03/25 12:45:16;;;;;;;0.30;0.30;;;23.90;1.00;;;;;;5055668;28;20206;-75
2022/03/25 12:47:43;;;;;;;0.30;0.30;;;24.10;1.00;;;;;;5055283;28;20167;-75
2022/03/25 12:50:14;;;;;;;0.30;0.30;;;25.00;1.00;;;;;;5054048;28;20675;-75
2022/03/25 12:52:40;;;;;;;0.30;0.30;;;25.20;1.00;;;;;;5055194;28;20180;-76
2022/03/25 12:55:11;;;;;;;0.20;0.20;;;25.50;1.00;;;;;;5055154;28;20191;-74
2022/03/25 12:57:39;;;;;;;0.30;0.30;;;24.30;1.00;;;;;;5053822;28;20627;-76
2022/03/25 13:00:08;;;;;;;0.30;0.30;;;22.90;1.00;;;;;;5056898;28;20725;-74
2022/03/25 13:02:38;;;;;;;0.30;0.30;;;23.00;1.00;;;;;;5054123;28;20179;-73
2022/03/25 13:05:05;;;;;;;0.30;0.30;;;22.80;1.00;;;;;;5054331;28;20683;-73